Time;durP1;ratioP1;P1;durP2;ratioP2;P2;SDS_P1;SDS_P2;PMS_P1;PMS_P2;Temp;Humidity;BMP_temperature;BMP_pressure;BME280_temperature;BME280_humidity;BME280_pressure;Samples;Min_cycle;Max_cycle;Signal;HPM_P1;HPM_P2
2023/12/16 00:01:25;;;;;;;16.63;2.83;;;;;;;;;;5042963;28;20111;-58
2023/12/16 00:03:51;;;;;;;12.65;2.72;;;;;;;;;;5043104;28;20049;-58
2023/12/16 00:06:20;;;;;;;15.02;2.53;;;;;;;;;;5042894;28;20048;-58
2023/12/16 00:08:46;;;;;;;9.57;2.55;;;;;;;;;;5042848;28;20128;-58
2023/12/16 00:11:13;;;;;;;19.02;2.97;;;;;;;;;;5033056;28;20037;-58
2023/12/16 00:13:39;;;;;;;9.45;2.30;;;;;;;;;;5034955;28;20117;-58
2023/12/16 00:16:05;;;;;;;7.35;2.20;;;;;;;;;;5042919;28;20045;-58
2023/12/16 00:18:31;;;;;;;10.85;2.28;;;;;;;;;;5042786;28;20124;-58
2023/12/16 00:20:57;;;;;;;8.35;2.30;;;;;;;;;;5042764;28;20115;-58
2023/12/16 00:23:23;;;;;;;12.20;1.95;;;;;;;;;;5042414;28;20530;-58
2023/12/16 00:25:49;;;;;;;11.65;2.00;;;;;;;;;;5043212;28;20037;-58
2023/12/16 00:28:15;;;;;;;7.78;2.15;;;;;;;;;;5041689;28;20400;-58
2023/12/16 00:30:41;;;;;;;11.50;2.38;;;;;;;;;;5042644;28;20045;-58
2023/12/16 00:33:07;;;;;;;10.40;2.08;;;;;;;;;;5042991;28;20453;-57
2023/12/16 00:35:33;;;;;;;8.32;2.10;;;;;;;;;;5042412;28;20045;-57
2023/12/16 00:37:59;;;;;;;10.25;2.22;;;;;;;;;;5042182;28;20086;-58
2023/12/16 00:40:25;;;;;;;6.30;2.65;;;;;;;;;;5042866;28;20045;-57
2023/12/16 00:42:51;;;;;;;13.32;2.60;;;;;;;;;;5031637;28;20045;-58
2023/12/16 00:45:17;;;;;;;9.55;2.95;;;;;;;;;;5042100;28;20037;-57
2023/12/16 00:47:43;;;;;;;12.45;2.42;;;;;;;;;;5042233;28;20041;-58
2023/12/16 00:50:10;;;;;;;9.88;2.05;;;;;;;;;;5042548;28;20044;-57
2023/12/16 00:52:36;;;;;;;8.55;1.80;;;;;;;;;;5042580;28;20051;-57
2023/12/16 00:55:03;;;;;;;8.45;2.00;;;;;;;;;;5041942;28;20041;-57
2023/12/16 00:57:29;;;;;;;11.20;2.22;;;;;;;;;;5042212;28;20506;-57
2023/12/16 00:59:55;;;;;;;12.48;1.92;;;;;;;;;;5042100;28;20198;-58
2023/12/16 01:02:21;;;;;;;9.07;2.05;;;;;;;;;;5042078;28;20044;-58
2023/12/16 01:04:47;;;;;;;8.20;1.73;;;;;;;;;;5042090;28;20041;-58
2023/12/16 01:07:13;;;;;;;8.48;1.88;;;;;;;;;;5030133;28;20033;-58
2023/12/16 01:09:39;;;;;;;8.07;2.33;;;;;;;;;;5041497;28;20108;-57
2023/12/16 01:12:05;;;;;;;8.02;1.90;;;;;;;;;;5041814;28;20490;-57
2023/12/16 01:14:31;;;;;;;12.73;2.20;;;;;;;;;;5041736;28;20179;-57
2023/12/16 01:16:58;;;;;;;6.75;1.73;;;;;;;;;;5041829;28;20120;-58
2023/12/16 01:19:24;;;;;;;12.02;2.92;;;;;;;;;;5041993;28;20044;-58
2023/12/16 01:21:50;;;;;;;7.32;2.05;;;;;;;;;;5042081;28;20044;-58
2023/12/16 01:24:16;;;;;;;12.43;2.10;;;;;;;;;;5041187;28;20090;-57
2023/12/16 01:26:42;;;;;;;12.38;2.63;;;;;;;;;;5042146;28;20080;-57
2023/12/16 01:29:08;;;;;;;7.30;2.83;;;;;;;;;;5041626;28;20197;-58
2023/12/16 01:31:34;;;;;;;8.50;1.90;;;;;;;;;;5040652;28;20501;-57
2023/12/16 01:34:00;;;;;;;10.50;2.53;;;;;;;;;;5041667;28;20040;-58
2023/12/16 01:36:26;;;;;;;9.77;2.50;;;;;;;;;;5041912;28;20398;-58
2023/12/16 01:38:52;;;;;;;11.73;2.88;;;;;;;;;;5040748;28;20049;-58
2023/12/16 01:41:18;;;;;;;14.48;2.53;;;;;;;;;;5030134;28;20498;-58
2023/12/16 01:43:44;;;;;;;10.88;2.70;;;;;;;;;;5040762;28;20033;-60
2023/12/16 01:46:10;;;;;;;8.95;2.53;;;;;;;;;;5041585;28;20059;-57
2023/12/16 01:48:36;;;;;;;11.82;2.45;;;;;;;;;;5041248;28;20040;-58
2023/12/16 01:51:03;;;;;;;11.95;2.15;;;;;;;;;;5041617;28;20047;-58
2023/12/16 01:53:30;;;;;;;13.90;3.30;;;;;;;;;;5039614;28;20626;-58
2023/12/16 01:55:56;;;;;;;13.07;3.10;;;;;;;;;;5040896;28;20052;-57
2023/12/16 01:58:22;;;;;;;11.73;2.75;;;;;;;;;;5039823;28;20079;-58
2023/12/16 02:00:51;;;;;;;8.13;2.40;;;;;;;;;;5040954;28;20045;-58
2023/12/16 02:03:18;;;;;;;12.75;2.67;;;;;;;;;;5040592;28;20780;-58
2023/12/16 02:05:44;;;;;;;7.07;2.00;;;;;;;;;;5041301;28;20053;-58
2023/12/16 02:10:45;;;;;;;12.18;2.05;;;;;;;;;;5034894;28;20044;-57
2023/12/16 02:13:12;;;;;;;12.63;2.20;;;;;;;;;;5022787;28;20087;-57
2023/12/16 02:15:38;;;;;;;7.68;2.47;;;;;;;;;;5040541;28;20045;-58
2023/12/16 02:18:04;;;;;;;11.27;2.05;;;;;;;;;;5040938;28;20561;-58
2023/12/16 02:20:30;;;;;;;10.60;2.05;;;;;;;;;;5023054;28;20049;-57
2023/12/16 02:22:56;;;;;;;8.75;1.80;;;;;;;;;;5039588;28;20063;-57
2023/12/16 02:25:22;;;;;;;18.42;2.10;;;;;;;;;;5039979;28;20045;-58
2023/12/16 02:27:48;;;;;;;11.65;2.08;;;;;;;;;;5040064;28;20122;-57
2023/12/16 02:30:14;;;;;;;10.48;2.10;;;;;;;;;;5041234;28;20071;-57
2023/12/16 02:32:41;;;;;;;13.95;2.28;;;;;;;;;;5041348;28;20043;-57
2023/12/16 02:35:07;;;;;;;13.50;2.20;;;;;;;;;;5040876;28;20501;-57
2023/12/16 02:37:33;;;;;;;13.20;2.05;;;;;;;;;;5040561;28;20037;-57
2023/12/16 02:39:59;;;;;;;21.92;2.67;;;;;;;;;;5040596;28;20124;-58
2023/12/16 02:42:25;;;;;;;10.80;2.15;;;;;;;;;;5044423;28;20120;-57
2023/12/16 02:44:51;;;;;;;8.38;1.80;;;;;;;;;;5044530;28;20654;-57
2023/12/16 02:47:17;;;;;;;7.22;1.52;;;;;;;;;;5044812;28;20036;-58
2023/12/16 02:49:44;;;;;;;9.50;1.85;;;;;;;;;;5045257;28;20500;-57
2023/12/16 02:52:10;;;;;;;8.00;1.92;;;;;;;;;;5043738;28;20120;-57
2023/12/16 02:54:36;;;;;;;8.10;1.48;;;;;;;;;;5043567;28;20048;-58
2023/12/16 02:57:02;;;;;;;11.75;2.97;;;;;;;;;;5026604;28;20055;-57
2023/12/16 02:59:29;;;;;;;10.88;1.60;;;;;;;;;;5044580;28;20044;-57
2023/12/16 03:01:55;;;;;;;15.35;2.05;;;;;;;;;;5041217;28;20049;-57
2023/12/16 03:04:21;;;;;;;11.40;2.20;;;;;;;;;;5044547;28;20033;-58
2023/12/16 03:06:47;;;;;;;6.50;1.65;;;;;;;;;;5045366;28;20173;-57
2023/12/16 03:09:13;;;;;;;8.75;1.90;;;;;;;;;;5043385;28;20403;-58
2023/12/16 03:11:39;;;;;;;14.00;1.95;;;;;;;;;;5044083;28;20049;-57
2023/12/16 03:14:05;;;;;;;8.73;1.83;;;;;;;;;;5044278;28;20727;-57
2023/12/16 03:16:33;;;;;;;13.02;2.42;;;;;;;;;;5042501;28;20049;-57
2023/12/16 03:18:59;;;;;;;9.27;1.90;;;;;;;;;;5044288;28;20041;-58
2023/12/16 03:21:25;;;;;;;14.27;2.80;;;;;;;;;;5043636;28;20047;-58
2023/12/16 03:23:51;;;;;;;12.98;1.90;;;;;;;;;;5043208;28;20037;-58
2023/12/16 03:26:17;;;;;;;12.43;1.85;;;;;;;;;;5044565;28;20479;-58
2023/12/16 03:28:43;;;;;;;14.88;2.50;;;;;;;;;;5041505;28;20670;-58
2023/12/16 03:31:09;;;;;;;9.27;2.33;;;;;;;;;;5025710;28;21506;-58
2023/12/16 03:33:35;;;;;;;11.70;1.92;;;;;;;;;;5043228;28;20107;-58
2023/12/16 03:36:01;;;;;;;12.32;2.10;;;;;;;;;;5036260;28;20046;-58
2023/12/16 03:38:27;;;;;;;12.25;3.22;;;;;;;;;;5042825;28;20551;-58
2023/12/16 03:40:53;;;;;;;11.00;2.22;;;;;;;;;;5043931;28;20048;-58
2023/12/16 03:43:19;;;;;;;14.02;2.40;;;;;;;;;;5043989;28;20041;-58
2023/12/16 03:45:45;;;;;;;12.82;2.63;;;;;;;;;;5026071;28;20048;-58
2023/12/16 03:48:10;;;;;;;16.75;2.63;;;;;;;;;;5044141;28;20098;-58
2023/12/16 03:50:36;;;;;;;12.77;2.55;;;;;;;;;;5043777;28;20486;-58
2023/12/16 03:53:02;;;;;;;8.20;2.30;;;;;;;;;;5042571;28;20083;-57
2023/12/16 03:55:28;;;;;;;11.13;2.10;;;;;;;;;;5043714;28;20052;-57
2023/12/16 03:57:54;;;;;;;9.38;2.40;;;;;;;;;;5044347;28;20174;-58
2023/12/16 04:00:20;;;;;;;10.88;2.28;;;;;;;;;;5044324;28;20056;-60
2023/12/16 04:02:46;;;;;;;8.20;2.60;;;;;;;;;;5044411;28;20044;-58
2023/12/16 04:05:13;;;;;;;11.50;2.75;;;;;;;;;;5043742;28;20049;-58
2023/12/16 04:07:39;;;;;;;14.27;3.15;;;;;;;;;;5006326;28;20046;-58
2023/12/16 04:10:05;;;;;;;11.82;2.10;;;;;;;;;;5043516;28;20060;-57
2023/12/16 04:12:31;;;;;;;13.18;2.60;;;;;;;;;;5043748;28;20045;-57
2023/12/16 04:14:57;;;;;;;16.95;3.03;;;;;;;;;;5026239;28;20737;-58
2023/12/16 04:17:23;;;;;;;13.57;2.38;;;;;;;;;;5043796;28;20124;-58
2023/12/16 04:19:51;;;;;;;9.63;2.30;;;;;;;;;;5043908;28;20467;-57
2023/12/16 04:22:17;;;;;;;16.23;2.40;;;;;;;;;;5007304;28;20041;-58
2023/12/16 04:24:43;;;;;;;14.43;2.17;;;;;;;;;;5042882;28;20083;-58
2023/12/16 04:27:09;;;;;;;14.73;2.70;;;;;;;;;;5042605;28;20048;-57
2023/12/16 04:29:35;;;;;;;23.70;3.65;;;;;;;;;;5043336;28;20068;-57
2023/12/16 04:32:01;;;;;;;13.45;3.45;;;;;;;;;;5043745;28;20083;-57
2023/12/16 04:34:27;;;;;;;10.93;2.42;;;;;;;;;;5043403;28;20199;-58
2023/12/16 04:36:53;;;;;;;15.13;2.40;;;;;;;;;;5042792;28;20037;-60
2023/12/16 04:39:19;;;;;;;15.52;3.00;;;;;;;;;;5043275;28;20033;-58
2023/12/16 04:41:45;;;;;;;18.45;2.83;;;;;;;;;;5042928;28;20040;-58
2023/12/16 04:44:11;;;;;;;13.40;2.03;;;;;;;;;;5043201;28;20190;-58
2023/12/16 04:46:37;;;;;;;16.40;2.60;;;;;;;;;;5043075;28;20049;-58
2023/12/16 04:49:03;;;;;;;20.25;2.63;;;;;;;;;;5042788;28;20566;-58
2023/12/16 04:51:29;;;;;;;10.98;2.33;;;;;;;;;;5042733;28;20180;-58
2023/12/16 04:53:58;;;;;;;8.98;1.85;;;;;;;;;;5042007;28;20041;-59
2023/12/16 04:56:24;;;;;;;18.08;2.53;;;;;;;;;;5025151;28;20037;-58
2023/12/16 04:58:50;;;;;;;20.50;4.05;;;;;;;;;;5043265;28;20700;-57
2023/12/16 05:01:16;;;;;;;19.30;2.67;;;;;;;;;;5042691;28;20135;-58
2023/12/16 05:03:42;;;;;;;18.15;2.47;;;;;;;;;;5042544;28;20094;-58
2023/12/16 05:06:09;;;;;;;14.50;2.63;;;;;;;;;;5042676;28;20496;-58
2023/12/16 05:08:35;;;;;;;11.50;1.98;;;;;;;;;;5041245;28;20071;-58
2023/12/16 05:11:01;;;;;;;17.77;2.47;;;;;;;;;;5038047;28;20409;-57
2023/12/16 05:13:27;;;;;;;16.40;2.65;;;;;;;;;;5024605;28;20114;-58
2023/12/16 05:15:53;;;;;;;14.18;2.40;;;;;;;;;;5039999;28;20651;-57
2023/12/16 05:18:19;;;;;;;14.35;2.40;;;;;;;;;;5038912;28;20040;-57
2023/12/16 05:20:45;;;;;;;17.85;2.97;;;;;;;;;;5036006;28;20873;-57
2023/12/16 05:23:11;;;;;;;11.80;2.47;;;;;;;;;;5040128;28;20048;-58
2023/12/16 05:25:39;;;;;;;11.75;2.40;;;;;;;;;;5024157;28;20387;-58
2023/12/16 05:28:05;;;;;;;13.75;2.35;;;;;;;;;;5042172;28;20106;-58
2023/12/16 05:30:32;;;;;;;15.13;2.85;;;;;;;;;;5039062;28;20045;-58
2023/12/16 05:32:58;;;;;;;18.08;2.60;;;;;;;;;;5042344;28;20048;-58
2023/12/16 05:35:24;;;;;;;16.02;3.05;;;;;;;;;;5042751;28;20037;-58
2023/12/16 05:37:50;;;;;;;11.52;2.60;;;;;;;;;;5023595;28;20179;-58
2023/12/16 05:40:16;;;;;;;10.05;2.22;;;;;;;;;;5040206;28;20525;-58
2023/12/16 05:42:42;;;;;;;13.02;3.58;;;;;;;;;;5035508;28;20048;-58
2023/12/16 05:45:08;;;;;;;17.30;2.90;;;;;;;;;;5041037;28;20036;-58
2023/12/16 05:47:34;;;;;;;16.85;2.78;;;;;;;;;;5041346;28;20109;-58
2023/12/16 05:50:00;;;;;;;17.13;3.47;;;;;;;;;;5041211;28;20048;-58
2023/12/16 05:52:27;;;;;;;17.83;4.13;;;;;;;;;;5040488;28;20036;-60
2023/12/16 05:54:53;;;;;;;13.43;2.60;;;;;;;;;;5041543;28;20048;-58
2023/12/16 05:57:19;;;;;;;18.17;3.00;;;;;;;;;;5023328;28;20056;-57
2023/12/16 05:59:45;;;;;;;23.77;3.20;;;;;;;;;;5041058;28;20033;-58
2023/12/16 06:02:11;;;;;;;17.27;3.35;;;;;;;;;;5041347;28;20047;-58
2023/12/16 06:04:37;;;;;;;20.95;3.22;;;;;;;;;;5042115;28;20773;-58
2023/12/16 06:07:03;;;;;;;16.52;3.08;;;;;;;;;;5040999;28;20051;-59
2023/12/16 06:09:29;;;;;;;17.77;4.18;;;;;;;;;;5040917;28;20060;-58
2023/12/16 06:11:56;;;;;;;16.58;3.70;;;;;;;;;;5041560;28;20040;-58
2023/12/16 06:14:22;;;;;;;18.15;3.85;;;;;;;;;;5040453;28;20510;-58
2023/12/16 06:16:48;;;;;;;18.23;3.22;;;;;;;;;;5041749;28;20049;-58
2023/12/16 06:19:15;;;;;;;19.45;3.67;;;;;;;;;;5041740;28;20049;-58
2023/12/16 06:21:41;;;;;;;17.02;4.32;;;;;;;;;;5041643;28;20094;-58
2023/12/16 06:24:10;;;;;;;16.77;4.05;;;;;;;;;;5040480;28;20049;-58
2023/12/16 06:26:36;;;;;;;20.75;3.90;;;;;;;;;;5041248;28;20128;-58
2023/12/16 06:29:02;;;;;;;12.90;3.67;;;;;;;;;;5041201;28;20726;-58
2023/12/16 06:31:28;;;;;;;16.58;3.22;;;;;;;;;;5041845;28;20423;-57
2023/12/16 06:33:54;;;;;;;15.10;3.92;;;;;;;;;;5040904;28;20044;-58
2023/12/16 06:36:20;;;;;;;17.70;4.25;;;;;;;;;;5023825;28;20410;-58
2023/12/16 06:38:46;;;;;;;24.90;5.80;;;;;;;;;;5040404;28;20593;-58
2023/12/16 06:41:12;;;;;;;19.05;4.10;;;;;;;;;;5041272;28;20124;-57
2023/12/16 06:43:38;;;;;;;18.58;4.13;;;;;;;;;;5041057;28;20128;-58
2023/12/16 06:46:04;;;;;;;19.48;4.65;;;;;;;;;;5041364;28;20037;-58
2023/12/16 06:48:30;;;;;;;21.02;4.40;;;;;;;;;;5041798;28;20053;-60
2023/12/16 06:50:57;;;;;;;22.63;4.95;;;;;;;;;;5041919;28;20045;-58
2023/12/16 06:53:24;;;;;;;25.15;5.63;;;;;;;;;;5040155;28;20445;-58
2023/12/16 06:55:51;;;;;;;18.83;4.20;;;;;;;;;;5040971;28;20053;-58
2023/12/16 06:58:17;;;;;;;18.67;4.60;;;;;;;;;;5040977;28;20106;-58
2023/12/16 07:00:43;;;;;;;17.13;3.83;;;;;;;;;;5040836;28;20041;-58
2023/12/16 07:03:09;;;;;;;19.70;4.03;;;;;;;;;;5041393;28;20041;-58
2023/12/16 07:05:35;;;;;;;42.50;5.75;;;;;;;;;;5039829;28;21270;-58
2023/12/16 07:08:01;;;;;;;25.33;5.32;;;;;;;;;;5039356;28;20095;-59
2023/12/16 07:10:27;;;;;;;16.55;5.13;;;;;;;;;;5040347;28;20059;-58
2023/12/16 07:12:53;;;;;;;19.63;4.07;;;;;;;;;;5041882;28;20131;-58
2023/12/16 07:15:20;;;;;;;19.88;4.95;;;;;;;;;;5039992;28;20048;-57
2023/12/16 07:17:46;;;;;;;23.25;4.28;;;;;;;;;;5039868;28;20056;-58
2023/12/16 07:20:13;;;;;;;23.77;5.65;;;;;;;;;;5036130;28;20079;-58
2023/12/16 07:22:39;;;;;;;16.70;4.18;;;;;;;;;;5022096;28;20128;-58
2023/12/16 07:25:06;;;;;;;14.75;4.43;;;;;;;;;;5041124;28;20048;-58
2023/12/16 07:27:31;;;;;;;17.60;5.05;;;;;;;;;;5024833;28;20491;-58
2023/12/16 07:29:58;;;;;;;32.50;5.03;;;;;;;;;;5041751;28;20041;-57
2023/12/16 07:32:24;;;;;;;20.15;5.15;;;;;;;;;;5043280;28;20120;-57
2023/12/16 07:34:50;;;;;;;23.15;4.70;;;;;;;;;;5043190;28;20041;-58
2023/12/16 07:37:16;;;;;;;18.50;4.65;;;;;;;;;;5044039;28;20044;-58
2023/12/16 07:39:42;;;;;;;16.45;5.22;;;;;;;;;;5043687;28;20637;-58
2023/12/16 07:42:08;;;;;;;19.00;5.63;;;;;;;;;;5043175;28;20044;-58
2023/12/16 07:44:34;;;;;;;20.73;5.05;;;;;;;;;;5038845;28;20045;-58
2023/12/16 07:47:00;;;;;;;18.70;5.10;;;;;;;;;;5041438;28;20037;-59
2023/12/16 07:49:27;;;;;;;16.15;5.10;;;;;;;;;;5039817;28;20041;-59
2023/12/16 07:51:54;;;;;;;28.40;5.43;;;;;;;;;;5042940;28;20045;-60
2023/12/16 07:54:24;;;;;;;18.23;4.47;;;;;;;;;;5041809;28;20521;-61
2023/12/16 07:56:50;;;;;;;19.67;4.93;;;;;;;;;;5042185;28;20044;-60
2023/12/16 07:59:17;;;;;;;18.73;4.68;;;;;;;;;;5044900;28;20068;-58
2023/12/16 08:01:48;;;;;;;22.02;4.55;;;;;;;;;;5043177;28;20048;-58
2023/12/16 08:04:14;;;;;;;20.08;5.25;;;;;;;;;;5042386;28;20037;-58
2023/12/16 08:06:40;;;;;;;18.05;4.70;;;;;;;;;;5044096;28;20045;-60
2023/12/16 08:09:06;;;;;;;18.63;4.68;;;;;;;;;;5043247;28;20053;-59
2023/12/16 08:11:33;;;;;;;21.08;4.72;;;;;;;;;;5044249;28;20068;-61
2023/12/16 08:14:00;;;;;;;16.02;5.10;;;;;;;;;;5043255;28;20037;-59
2023/12/16 08:16:26;;;;;;;27.38;5.72;;;;;;;;;;5043725;28;20044;-58
2023/12/16 08:18:52;;;;;;;23.60;5.47;;;;;;;;;;5043997;28;20076;-58
2023/12/16 08:21:18;;;;;;;17.98;4.85;;;;;;;;;;5042818;28;20141;-58
2023/12/16 08:23:45;;;;;;;22.85;5.80;;;;;;;;;;5025417;28;20049;-58
2023/12/16 08:26:11;;;;;;;28.20;5.93;;;;;;;;;;5044013;28;20095;-60
2023/12/16 08:28:37;;;;;;;20.67;5.35;;;;;;;;;;5043772;28;20049;-58
2023/12/16 08:31:03;;;;;;;28.17;5.70;;;;;;;;;;5036352;28;20037;-59
2023/12/16 08:33:30;;;;;;;18.42;5.72;;;;;;;;;;5042001;28;20136;-59
2023/12/16 08:35:59;;;;;;;19.65;5.07;;;;;;;;;;5042553;28;20290;-60
2023/12/16 08:38:25;;;;;;;31.25;6.10;;;;;;;;;;5038511;28;20121;-58
2023/12/16 08:40:53;;;;;;;24.02;5.63;;;;;;;;;;5034934;28;20088;-58
2023/12/16 08:43:19;;;;;;;17.47;5.37;;;;;;;;;;5023934;28;20059;-60
2023/12/16 08:45:45;;;;;;;20.95;4.82;;;;;;;;;;5043606;28;20041;-58
2023/12/16 08:48:11;;;;;;;23.40;4.93;;;;;;;;;;5042515;28;20068;-58
2023/12/16 08:50:37;;;;;;;19.73;5.05;;;;;;;;;;5042144;28;20187;-60
2023/12/16 08:53:03;;;;;;;22.55;5.25;;;;;;;;;;5041817;28;20037;-58
2023/12/16 08:55:29;;;;;;;25.15;5.43;;;;;;;;;;5042794;28;20060;-58
2023/12/16 08:57:55;;;;;;;32.13;5.90;;;;;;;;;;5041991;28;20045;-58
2023/12/16 09:00:21;;;;;;;21.27;6.32;;;;;;;;;;5042694;28;20609;-58
2023/12/16 09:02:47;;;;;;;26.20;5.40;;;;;;;;;;5042528;28;20486;-58
2023/12/16 09:05:13;;;;;;;26.48;5.20;;;;;;;;;;5042894;28;20055;-58
2023/12/16 09:07:39;;;;;;;25.83;6.60;;;;;;;;;;5005623;28;20553;-58
2023/12/16 09:10:05;;;;;;;25.42;5.93;;;;;;;;;;5041931;28;20049;-58
2023/12/16 09:12:31;;;;;;;20.58;6.07;;;;;;;;;;5041925;28;20095;-58
2023/12/16 09:14:57;;;;;;;29.17;5.38;;;;;;;;;;5041024;28;20037;-58
2023/12/16 09:17:23;;;;;;;26.98;5.70;;;;;;;;;;5041944;28;20576;-58
2023/12/16 09:19:49;;;;;;;16.58;4.68;;;;;;;;;;5041621;28;20145;-58
2023/12/16 09:22:16;;;;;;;22.60;4.80;;;;;;;;;;5041429;28;20396;-58
2023/12/16 09:24:42;;;;;;;29.55;5.78;;;;;;;;;;5024100;28;20057;-59
2023/12/16 09:27:08;;;;;;;29.02;6.40;;;;;;;;;;5040463;28;20111;-58
2023/12/16 09:29:34;;;;;;;29.27;5.65;;;;;;;;;;5042855;28;20053;-58
2023/12/16 09:32:00;;;;;;;21.13;5.95;;;;;;;;;;5040648;28;20080;-58
2023/12/16 09:34:26;;;;;;;34.13;6.55;;;;;;;;;;5040830;28;20076;-58
2023/12/16 09:36:52;;;;;;;22.00;5.80;;;;;;;;;;5041090;28;20047;-59
2023/12/16 09:39:19;;;;;;;28.60;5.90;;;;;;;;;;5041509;28;20036;-58
2023/12/16 09:41:46;;;;;;;27.60;5.75;;;;;;;;;;5041572;28;20731;-59
2023/12/16 09:44:19;;;;;;;27.75;5.90;;;;;;;;;;5041810;28;20041;-58
2023/12/16 09:46:45;;;;;;;36.33;5.82;;;;;;;;;;5041410;28;20102;-58
2023/12/16 09:49:13;;;;;;;32.75;6.60;;;;;;;;;;5039578;28;20049;-59
2023/12/16 09:51:41;;;;;;;30.15;6.20;;;;;;;;;;5022096;28;20131;-58
2023/12/16 09:54:07;;;;;;;21.80;5.53;;;;;;;;;;5029244;28;20055;-58
2023/12/16 09:56:33;;;;;;;27.20;6.43;;;;;;;;;;5040175;28;20545;-58
2023/12/16 09:59:00;;;;;;;29.60;6.60;;;;;;;;;;5039525;28;20049;-58
2023/12/16 10:01:26;;;;;;;27.65;5.60;;;;;;;;;;5040272;28;20041;-58
2023/12/16 10:03:52;;;;;;;29.90;5.65;;;;;;;;;;5040339;28;20045;-58
2023/12/16 10:06:18;;;;;;;22.33;6.40;;;;;;;;;;5040513;28;20182;-59
2023/12/16 10:08:46;;;;;;;20.27;5.72;;;;;;;;;;5040512;28;20104;-58
2023/12/16 10:11:12;;;;;;;23.10;5.88;;;;;;;;;;5041659;28;20445;-59
2023/12/16 10:13:59;;;;;;;24.15;6.28;;;;;;;;;;5042366;28;20099;-58
2023/12/16 10:16:25;;;;;;;35.70;6.25;;;;;;;;;;5041177;28;20095;-58
2023/12/16 10:18:55;;;;;;;30.35;7.03;;;;;;;;;;5041263;28;20405;-59
2023/12/16 10:21:25;;;;;;;25.67;6.55;;;;;;;;;;5040896;28;20090;-61
2023/12/16 10:23:51;;;;;;;26.20;7.47;;;;;;;;;;5041203;28;20499;-59
2023/12/16 10:26:17;;;;;;;29.08;8.40;;;;;;;;;;5041043;28;20036;-59
2023/12/16 10:28:46;;;;;;;28.38;7.85;;;;;;;;;;5036592;28;20045;-58
2023/12/16 10:31:13;;;;;;;49.97;8.77;;;;;;;;;;5039058;28;20119;-60
2023/12/16 10:33:39;;;;;;;44.70;8.95;;;;;;;;;;5041319;28;20044;-58
2023/12/16 10:36:05;;;;;;;37.88;8.60;;;;;;;;;;5041749;28;20052;-58
2023/12/16 10:38:31;;;;;;;49.92;9.48;;;;;;;;;;5025452;28;20045;-58
2023/12/16 10:40:57;;;;;;;43.08;10.93;;;;;;;;;;5037976;28;20045;-58
2023/12/16 10:43:23;;;;;;;39.13;9.68;;;;;;;;;;5036602;28;20512;-58
2023/12/16 10:45:50;;;;;;;39.03;10.88;;;;;;;;;;5028102;28;20111;-59
2023/12/16 10:48:17;;;;;;;38.45;9.75;;;;;;;;;;5037928;28;20045;-59
2023/12/16 10:50:44;;;;;;;34.42;8.95;;;;;;;;;;5029100;28;20136;-59
2023/12/16 10:53:15;;;;;;;38.80;10.13;;;;;;;;;;5038540;28;20458;-58
2023/12/16 10:55:44;;;;;;;36.20;9.05;;;;;;;;;;5039078;28;20295;-58
2023/12/16 10:58:16;;;;;;;30.63;10.25;;;;;;;;;;5038997;28;20045;-59
2023/12/16 11:00:44;;;;;;;34.90;10.13;;;;;;;;;;5040015;28;20114;-58
2023/12/16 11:03:16;;;;;;;37.53;9.93;;;;;;;;;;5035092;28;20049;-58
2023/12/16 11:05:44;;;;;;;42.05;10.57;;;;;;;;;;5042994;28;20049;-58
2023/12/16 11:08:11;;;;;;;31.17;10.98;;;;;;;;;;5034690;28;20110;-58
2023/12/16 11:10:37;;;;;;;31.85;9.85;;;;;;;;;;5024662;28;20057;-58
2023/12/16 11:13:04;;;;;;;28.58;9.68;;;;;;;;;;5042250;28;20045;-58
2023/12/16 11:15:31;;;;;;;39.40;10.20;;;;;;;;;;5024162;28;20083;-58
2023/12/16 11:18:01;;;;;;;25.73;9.30;;;;;;;;;;5041599;28;20045;-58
2023/12/16 11:20:41;;;;;;;30.85;10.13;;;;;;;;;;5042529;28;20519;-58
2023/12/16 11:23:09;;;;;;;37.45;11.32;;;;;;;;;;5041563;28;20047;-57
2023/12/16 11:25:35;;;;;;;31.20;10.07;;;;;;;;;;5042375;28;20053;-57
2023/12/16 11:28:02;;;;;;;35.42;10.63;;;;;;;;;;5042214;28;20915;-58
2023/12/16 11:30:29;;;;;;;33.20;10.23;;;;;;;;;;5042055;28;20434;-57
2023/12/16 11:32:56;;;;;;;29.98;10.82;;;;;;;;;;5043067;28;20444;-57
2023/12/16 11:35:38;;;;;;;29.52;11.02;;;;;;;;;;5035241;28;20107;-57
2023/12/16 11:38:04;;;;;;;33.55;11.05;;;;;;;;;;5038565;28;20048;-57
2023/12/16 11:40:42;;;;;;;32.58;11.43;;;;;;;;;;5040514;28;20582;-57
2023/12/16 11:43:09;;;;;;;38.65;12.13;;;;;;;;;;5041140;28;20037;-57
2023/12/16 11:45:39;;;;;;;42.95;12.85;;;;;;;;;;5040066;28;20122;-57
2023/12/16 11:48:05;;;;;;;32.60;11.18;;;;;;;;;;5040595;28;20077;-57
2023/12/16 11:50:34;;;;;;;31.95;10.57;;;;;;;;;;5022554;28;20770;-57
2023/12/16 11:53:00;;;;;;;30.13;10.55;;;;;;;;;;5040094;28;20112;-57
2023/12/16 11:55:26;;;;;;;26.85;10.75;;;;;;;;;;5023031;28;20040;-57
2023/12/16 11:57:53;;;;;;;34.47;11.02;;;;;;;;;;5040408;28;20532;-57
2023/12/16 12:00:19;;;;;;;41.80;11.70;;;;;;;;;;5040704;28;20048;-57
2023/12/16 12:02:46;;;;;;;32.13;10.32;;;;;;;;;;5039641;28;20041;-57
2023/12/16 12:05:14;;;;;;;24.00;10.75;;;;;;;;;;5039614;28;20487;-57
2023/12/16 12:07:40;;;;;;;31.52;10.93;;;;;;;;;;5038530;28;20529;-57
2023/12/16 12:10:06;;;;;;;24.58;10.48;;;;;;;;;;5039655;28;20247;-57
2023/12/16 12:12:32;;;;;;;29.20;11.02;;;;;;;;;;5039004;28;20093;-57
2023/12/16 12:14:58;;;;;;;31.13;10.90;;;;;;;;;;5040443;28;20052;-57
2023/12/16 12:17:26;;;;;;;30.45;9.90;;;;;;;;;;5040747;28;20053;-57
2023/12/16 12:19:52;;;;;;;31.17;10.82;;;;;;;;;;5041509;28;20055;-57
2023/12/16 12:22:20;;;;;;;29.35;9.77;;;;;;;;;;5040241;28;20390;-58
2023/12/16 12:24:46;;;;;;;27.52;10.75;;;;;;;;;;5041707;28;20068;-57
2023/12/16 12:27:12;;;;;;;21.77;9.52;;;;;;;;;;5040711;28;20669;-58
2023/12/16 12:29:57;;;;;;;24.88;8.80;;;;;;;;;;5040348;28;20053;-58
2023/12/16 12:32:24;;;;;;;25.20;9.30;;;;;;;;;;5041470;28;20159;-59
2023/12/16 12:34:56;;;;;;;23.98;10.68;;;;;;;;;;5041748;28;20045;-57
2023/12/16 12:37:23;;;;;;;22.58;9.75;;;;;;;;;;5040683;28;20045;-57
2023/12/16 12:39:50;;;;;;;25.10;10.05;;;;;;;;;;5040894;28;20128;-58
2023/12/16 12:42:16;;;;;;;26.33;9.77;;;;;;;;;;5040624;28;20056;-57
2023/12/16 12:44:51;;;;;;;19.17;8.23;;;;;;;;;;5041240;28;20479;-57
2023/12/16 12:47:27;;;;;;;20.17;8.55;;;;;;;;;;5029499;28;20053;-57
2023/12/16 12:49:53;;;;;;;16.48;7.90;;;;;;;;;;5040772;28;20087;-57
2023/12/16 12:52:19;;;;;;;18.10;7.82;;;;;;;;;;5039926;28;20098;-57
2023/12/16 12:54:46;;;;;;;21.80;7.70;;;;;;;;;;5041160;28;20055;-57
2023/12/16 12:57:19;;;;;;;18.67;7.38;;;;;;;;;;5040052;28;20045;-57
2023/12/16 12:59:45;;;;;;;19.60;7.07;;;;;;;;;;5041327;28;20056;-57
2023/12/16 13:02:11;;;;;;;18.83;8.63;;;;;;;;;;5040883;28;20049;-57
2023/12/16 13:04:37;;;;;;;18.15;7.53;;;;;;;;;;5022639;28;20383;-57
2023/12/16 13:07:03;;;;;;;17.58;8.65;;;;;;;;;;5040103;28;20091;-56
2023/12/16 13:09:29;;;;;;;17.95;7.82;;;;;;;;;;5039873;28;20135;-57
2023/12/16 13:11:55;;;;;;;15.85;7.88;;;;;;;;;;5040702;28;20053;-57
2023/12/16 13:14:21;;;;;;;21.35;8.35;;;;;;;;;;5039980;28;20049;-57
2023/12/16 13:16:48;;;;;;;16.70;7.80;;;;;;;;;;5040349;28;20406;-57
2023/12/16 13:19:14;;;;;;;21.20;8.52;;;;;;;;;;5040924;28;20076;-57
2023/12/16 13:21:40;;;;;;;18.00;8.10;;;;;;;;;;5039119;28;20056;-58
2023/12/16 13:24:06;;;;;;;29.70;8.90;;;;;;;;;;5039896;28;20049;-56
2023/12/16 13:26:32;;;;;;;24.58;9.52;;;;;;;;;;5040695;28;20055;-57
2023/12/16 13:28:58;;;;;;;25.15;10.60;;;;;;;;;;5039698;28;20063;-57
2023/12/16 13:31:24;;;;;;;26.33;10.02;;;;;;;;;;5040030;28;20517;-57
2023/12/16 13:33:50;;;;;;;24.45;10.70;;;;;;;;;;5039361;28;20040;-57
2023/12/16 13:36:16;;;;;;;25.45;10.90;;;;;;;;;;5038950;28;20055;-57
2023/12/16 13:38:42;;;;;;;23.40;11.27;;;;;;;;;;5039716;28;20048;-57
2023/12/16 13:41:08;;;;;;;25.25;10.27;;;;;;;;;;5039651;28;20931;-57
2023/12/16 13:43:34;;;;;;;25.67;11.75;;;;;;;;;;5039582;28;20040;-56
2023/12/16 13:46:00;;;;;;;36.53;13.27;;;;;;;;;;5040496;28;20049;-57
2023/12/16 13:48:26;;;;;;;28.88;13.80;;;;;;;;;;5039457;28;20585;-57
2023/12/16 13:50:52;;;;;;;31.05;14.18;;;;;;;;;;5039227;28;20135;-57
2023/12/16 13:53:18;;;;;;;35.75;14.57;;;;;;;;;;5040107;28;20079;-57
2023/12/16 13:55:44;;;;;;;32.35;13.23;;;;;;;;;;5039839;28;20072;-58
2023/12/16 13:58:10;;;;;;;30.50;13.70;;;;;;;;;;5039682;28;20120;-57
2023/12/16 14:00:37;;;;;;;28.05;14.55;;;;;;;;;;5039720;28;20143;-57
2023/12/16 14:03:03;;;;;;;29.95;13.00;;;;;;;;;;5039631;28;20041;-57
2023/12/16 14:05:29;;;;;;;35.67;14.68;;;;;;;;;;5038843;28;20119;-57
2023/12/16 14:07:55;;;;;;;26.45;12.57;;;;;;;;;;5038393;28;20577;-57
2023/12/16 14:10:21;;;;;;;29.20;14.00;;;;;;;;;;5039152;28;20538;-58
2023/12/16 14:12:47;;;;;;;29.67;12.10;;;;;;;;;;5039853;28;20187;-57
2023/12/16 14:15:13;;;;;;;32.33;12.68;;;;;;;;;;5038832;28;20056;-58
2023/12/16 14:17:40;;;;;;;39.58;12.57;;;;;;;;;;5038649;28;20498;-57
2023/12/16 14:20:07;;;;;;;25.13;10.13;;;;;;;;;;5039416;28;20052;-57
2023/12/16 14:22:33;;;;;;;25.10;8.75;;;;;;;;;;5038470;28;20502;-57
2023/12/16 14:24:59;;;;;;;31.00;9.10;;;;;;;;;;5039193;28;20526;-57
2023/12/16 14:27:25;;;;;;;26.60;8.23;;;;;;;;;;5039223;28;20186;-57